Time;durP1;ratioP1;P1;durP2;ratioP2;P2;SDS_P1;SDS_P2;PMS_P1;PMS_P2;Temp;Humidity;BMP_temperature;BMP_pressure;BME280_temperature;BME280_humidity;BME280_pressure;Samples;Min_cycle;Max_cycle;Signal;HPM_P1;HPM_P2
2022/01/16 10:01:53;;;;;;;56.92;31.40;;;;;;;18.69;42.02;100541.84;4987577;28;106149;-71
2022/01/16 10:04:35;;;;;;;60.60;33.15;;;;;;;19.07;41.07;100533.72;4985739;28;106113;-71
2022/01/16 10:07:03;;;;;;;134.38;74.63;;;;;;;20.06;40.46;100526.88;4984186;28;106191;-69
2022/01/16 10:09:29;;;;;;;61.15;34.13;;;;;;;21.62;38.90;100537.03;4981278;28;106417;-70
2022/01/16 10:12:00;;;;;;;52.50;30.02;;;;;;;23.03;36.36;100527.94;4981896;28;106774;-71
2022/01/16 10:14:31;;;;;;;55.03;32.47;;;;;;;24.11;33.52;100532.38;4984402;28;106016;-71
2022/01/16 10:16:57;;;;;;;54.33;32.13;;;;;;;24.83;31.84;100533.22;4984649;28;106139;-71
2022/01/16 10:19:30;;;;;;;56.95;32.28;;;;;;;26.05;30.59;100522.72;4982216;28;106323;-71
2022/01/16 10:22:04;;;;;;;56.97;33.72;;;;;;;26.93;28.40;100529.28;4981736;28;106054;-71
2022/01/16 10:24:33;;;;;;;53.97;33.00;;;;;;;27.93;27.14;100525.13;4981014;28;106099;-71
2022/01/16 10:27:07;;;;;;;56.20;33.08;;;;;;;27.48;25.98;100518.66;4982097;28;106218;-70
2022/01/16 10:29:36;;;;;;;55.70;33.25;;;;;;;26.73;26.34;100510.97;4981769;28;106504;-70
2022/01/16 10:32:10;;;;;;;59.20;35.42;;;;;;;26.09;26.36;100493.81;4982043;28;106470;-71
2022/01/16 10:34:36;;;;;;;52.42;32.72;;;;;;;25.94;26.26;100495.34;4984280;28;105930;-70
2022/01/16 10:37:18;;;;;;;54.08;33.00;;;;;;;26.29;25.72;100482.97;4983849;28;106358;-71
2022/01/16 10:39:57;;;;;;;56.65;32.58;;;;;;;26.75;24.84;100487.75;4984005;28;106149;-71
2022/01/16 10:42:23;;;;;;;47.85;30.25;;;;;;;26.71;24.57;100478.47;4983769;28;105878;-71
2022/01/16 10:45:11;;;;;;;45.85;29.52;;;;;;;26.45;24.27;100467.44;4984587;28;106448;-70
2022/01/16 10:47:42;;;;;;;47.38;29.00;;;;;;;27.02;23.93;100462.06;4981504;28;106033;-71
2022/01/16 10:50:24;;;;;;;71.30;45.38;;;;;;;27.79;22.77;100452.91;4983948;28;106117;-70
2022/01/16 10:52:54;;;;;;;47.78;31.42;;;;;;;28.81;21.91;100454.28;4983742;28;106385;-70
2022/01/16 10:55:32;;;;;;;49.72;31.17;;;;;;;28.24;21.90;100445.63;4984983;28;106528;-71
2022/01/16 10:58:03;;;;;;;54.97;32.78;;;;;;;27.00;22.71;100436.91;4984329;28;106219;-71
2022/01/16 11:00:29;;;;;;;57.67;33.58;;;;;;;26.22;23.12;100438.72;4983081;28;106595;-71
2022/01/16 11:02:58;;;;;;;54.00;33.25;;;;;;;25.57;23.56;100432.69;4983426;28;106025;-72
2022/01/16 11:05:26;;;;;;;58.72;36.22;;;;;;;25.70;23.54;100428.66;4984227;28;106065;-73
2022/01/16 11:08:06;;;;;;;49.50;31.35;;;;;;;26.07;22.93;100419.56;4983922;28;106148;-71
2022/01/16 11:10:37;;;;;;;46.05;28.90;;;;;;;26.71;22.49;100418.34;4983595;28;106618;-74
2022/01/16 11:13:06;;;;;;;40.08;25.95;;;;;;;27.28;21.84;100416.34;4971033;28;106775;-72
2022/01/16 11:15:34;;;;;;;42.85;25.00;;;;;;;25.40;22.34;100416.50;4970211;28;105979;-68
2022/01/16 11:18:00;;;;;;;42.97;24.73;;;;;;;23.18;24.54;100421.44;4970745;28;106108;-69
2022/01/16 11:20:29;;;;;;;41.28;23.05;;;;;;;21.34;25.70;100423.03;4970343;28;106066;-69
2022/01/16 11:23:12;;;;;;;43.78;22.23;;;;;;;20.31;26.87;100426.69;4970472;28;105836;-69
2022/01/16 11:25:39;;;;;;;43.67;23.35;;;;;;;19.55;27.95;100424.25;4970994;28;105958;-68
2022/01/16 11:28:16;;;;;;;40.28;23.63;;;;;;;18.99;28.30;100423.31;4970517;28;106124;-67
2022/01/16 11:30:54;;;;;;;45.67;24.65;;;;;;;18.24;28.84;100427.50;4933048;28;106162;-68
2022/01/16 11:33:22;;;;;;;44.28;25.42;;;;;;;17.35;29.59;100429.00;4950308;28;105967;-68
2022/01/16 11:35:52;;;;;;;46.83;26.48;;;;;;;16.61;30.43;100428.09;4950951;28;105971;-71
2022/01/16 11:38:20;;;;;;;42.83;25.83;;;;;;;16.16;31.10;100425.94;4950412;28;105835;-68
2022/01/16 11:40:48;;;;;;;41.00;24.20;;;;;;;15.82;31.23;100428.47;4950407;28;106242;-68
2022/01/16 11:43:20;;;;;;;38.88;23.20;;;;;;;15.82;31.60;100423.09;4947228;28;106315;-69
2022/01/16 11:45:54;;;;;;;42.25;23.63;;;;;;;15.86;31.16;100424.34;4949625;28;106177;-70
2022/01/16 11:48:50;;;;;;;38.60;23.35;;;;;;;15.67;31.24;100423.19;4949544;28;106268;-70
2022/01/16 11:51:43;;;;;;;43.05;24.35;;;;;;;15.50;31.70;100411.09;4946961;28;106164;-70
2022/01/16 11:54:26;;;;;;;56.22;33.92;;;;;;;15.53;31.90;100406.19;4946479;28;106139;-67
2022/01/16 11:56:54;;;;;;;47.47;25.90;;;;;;;15.20;31.98;100396.06;4949885;28;105954;-67
2022/01/16 11:59:24;;;;;;;44.72;25.05;;;;;;;15.09;32.59;100393.06;4949280;28;106133;-79
2022/01/16 12:02:00;;;;;;;41.13;23.50;;;;;;;15.78;32.43;100384.19;4948407;28;106556;-74
2022/01/16 12:04:29;;;;;;;36.22;23.35;;;;;;;16.46;31.22;100378.03;4948676;28;106053;-71
2022/01/16 12:06:58;;;;;;;35.90;21.88;;;;;;;16.87;30.66;100379.72;4910202;28;106140;-72
2022/01/16 12:12:13;;;;;;;36.60;21.40;;;;;;;17.46;29.92;100377.19;4933500;28;107145;-75
2022/01/16 12:14:50;;;;;;;38.70;21.20;;;;;;;18.01;29.61;100373.28;4937154;28;106076;-74
2022/01/16 12:17:30;;;;;;;51.63;30.30;;;;;;;18.80;28.89;100365.72;4937488;28;106341;-72
2022/01/16 12:20:15;;;;;;;41.22;21.85;;;;;;;19.39;27.99;100368.09;4934872;28;106194;-74
2022/01/16 12:22:46;;;;;;;35.63;20.67;;;;;;;19.28;27.82;100366.97;4937702;28;106213;-72
2022/01/16 12:25:33;;;;;;;39.97;22.77;;;;;;;19.05;28.28;100356.81;4935881;28;106192;-73
2022/01/16 12:28:02;;;;;;;37.03;21.00;;;;;;;19.14;28.35;100355.47;4932685;28;106086;-74
2022/01/16 12:30:45;;;;;;;38.55;21.48;;;;;;;19.07;28.12;100360.13;4931805;28;106182;-73
2022/01/16 12:33:25;;;;;;;37.42;21.55;;;;;;;19.14;28.22;100352.78;4938954;28;106474;-76
2022/01/16 12:35:51;;;;;;;37.78;20.95;;;;;;;19.34;27.94;100359.84;4939952;28;106074;-77
2022/01/16 12:38:23;;;;;;;36.45;22.17;;;;;;;19.31;28.02;100346.78;4940309;28;106306;-73
2022/01/16 12:40:59;;;;;;;38.33;22.77;;;;;;;19.08;28.05;100340.16;4938202;28;106135;-73
2022/01/16 12:43:29;;;;;;;35.20;21.63;;;;;;;18.89;28.21;100333.88;4938447;28;105999;-77
2022/01/16 12:45:55;;;;;;;37.88;21.73;;;;;;;18.35;28.77;100336.19;4941294;28;108024;-76
2022/01/16 12:48:21;;;;;;;36.55;22.38;;;;;;;17.45;29.47;100337.81;4938798;28;106262;-78
2022/01/16 12:50:46;;;;;;;38.58;22.67;;;;;;;16.74;30.48;100333.97;4934986;28;106237;-77
2022/01/16 12:53:12;;;;;;;41.22;22.30;;;;;;;16.32;30.94;100330.63;4928195;28;106943;-78
2022/01/16 12:55:37;;;;;;;36.20;21.25;;;;;;;15.62;31.72;100338.88;4929670;28;106724;-78
2022/01/16 12:58:17;;;;;;;36.38;22.13;;;;;;;14.63;32.54;100330.81;4930773;28;105931;-77
2022/01/16 13:01:02;;;;;;;38.10;21.73;;;;;;;13.76;34.09;100335.25;4929750;28;106257;-77
2022/01/16 16:16:42;;;;;;;18.42;9.18;;;;;;;1.94;61.62;100440.88;5041889;27;1328734;-72
2022/01/16 16:19:07;;;;;;;17.52;11.20;;;;;;;1.92;62.16;100448.03;5065478;27;106240;-71
2022/01/16 16:21:32;;;;;;;11.57;7.10;;;;;;;1.93;62.95;100451.47;5065076;27;106231;-73
2022/01/16 16:23:58;;;;;;;20.63;11.57;;;;;;;1.96;62.99;100451.28;5065758;27;110857;-73
2022/01/16 16:26:23;;;;;;;18.17;10.52;;;;;;;1.99;63.25;100449.25;5063921;27;108013;-75
2022/01/16 16:28:48;;;;;;;18.25;8.70;;;;;;;2.01;64.19;100457.91;5063803;27;106377;-72
2022/01/16 16:31:14;;;;;;;14.57;8.20;;;;;;;2.01;64.14;100442.13;5063583;27;106199;-72
2022/01/16 16:33:41;;;;;;;18.63;11.48;;;;;;;2.00;64.21;100450.94;5063298;27;106456;-73
2022/01/16 16:36:07;;;;;;;20.55;10.43;;;;;;;1.99;63.89;100454.53;5062566;27;106640;-74
2022/01/16 16:38:33;;;;;;;21.70;12.93;;;;;;;2.01;63.74;100467.56;5064249;27;106050;-74
2022/01/16 16:40:59;;;;;;;21.38;10.23;;;;;;;2.05;64.98;100460.28;5044868;27;106255;-74
2022/01/16 16:43:25;;;;;;;22.67;11.45;;;;;;;2.03;64.43;100463.88;5064382;27;105944;-72
2022/01/16 16:45:50;;;;;;;19.70;11.35;;;;;;;2.03;64.49;100463.03;5064877;27;105965;-74
2022/01/16 16:48:15;;;;;;;22.17;11.63;;;;;;;2.03;64.83;100460.41;5065650;27;105820;-72
2022/01/16 16:50:41;;;;;;;18.60;10.43;;;;;;;2.01;64.51;100465.78;5064949;27;106185;-76
2022/01/16 16:53:07;;;;;;;20.90;12.27;;;;;;;2.00;64.33;100469.34;5064808;27;106692;-75
2022/01/16 16:55:32;;;;;;;24.65;12.20;;;;;;;2.00;64.69;100469.34;5064846;27;106059;-77
2022/01/16 16:57:58;;;;;;;25.00;14.57;;;;;;;2.00;64.48;100484.28;5065686;27;106010;-77
2022/01/16 17:00:24;;;;;;;17.73;11.18;;;;;;;2.01;65.03;100483.34;5064321;27;105792;-72
2022/01/16 17:02:50;;;;;;;19.65;10.93;;;;;;;2.01;65.00;100472.84;5051925;27;106587;-76
2022/01/16 17:05:16;;;;;;;27.05;13.60;;;;;;;2.02;64.89;100487.63;5044114;27;106097;-74
2022/01/16 17:07:41;;;;;;;22.25;11.57;;;;;;;2.02;65.32;100485.84;5044780;27;106281;-76
2022/01/16 17:10:11;;;;;;;20.17;10.65;;;;;;;2.03;65.42;100481.44;5044329;27;105869;-74
2022/01/16 17:12:37;;;;;;;18.10;10.67;;;;;;;2.00;64.80;100477.22;5043861;27;106275;-79
2022/01/16 17:15:05;;;;;;;23.88;11.68;;;;;;;1.98;65.22;100488.78;5043323;27;106019;-77
2022/01/16 17:17:30;;;;;;;16.65;9.80;;;;;;;1.98;65.44;100484.41;5044630;27;106061;-72
2022/01/16 17:19:57;;;;;;;21.55;11.52;;;;;;;1.95;65.57;100487.22;5044570;27;106212;-75
2022/01/16 17:22:24;;;;;;;12.43;7.65;;;;;;;1.96;66.08;100501.22;5043772;27;106127;-70
2022/01/16 17:24:52;;;;;;;21.92;10.95;;;;;;;1.94;65.83;100489.94;5043298;27;106137;-75
2022/01/16 17:27:19;;;;;;;19.45;10.52;;;;;;;1.92;66.39;100487.44;5035658;27;105972;-74
2022/01/16 17:29:48;;;;;;;16.27;9.82;;;;;;;1.88;66.09;100493.84;5030470;28;106241;-77
2022/01/16 17:32:15;;;;;;;24.42;10.20;;;;;;;1.85;66.31;100497.53;5030905;28;107405;-74
2022/01/16 17:34:41;;;;;;;22.75;10.15;;;;;;;1.86;66.22;100501.00;5030412;28;105983;-76
2022/01/16 17:37:06;;;;;;;21.27;12.10;;;;;;;1.83;66.56;100507.31;5013751;28;106260;-76
2022/01/16 17:39:33;;;;;;;17.95;8.93;;;;;;;1.81;66.75;100506.56;5030817;28;105774;-75
2022/01/16 17:42:01;;;;;;;23.30;11.60;;;;;;;1.79;66.94;100499.75;5030742;28;106812;-71
2022/01/16 17:44:27;;;;;;;20.45;10.98;;;;;;;1.80;66.97;100511.94;5030388;28;105992;-75
2022/01/16 17:46:52;;;;;;;22.10;12.40;;;;;;;1.78;66.74;100498.09;5030588;28;106037;-74
2022/01/16 17:49:18;;;;;;;21.13;12.57;;;;;;;1.77;66.99;100499.03;5030513;28;105783;-71
2022/01/16 17:51:43;;;;;;;22.02;12.43;;;;;;;1.77;66.89;100494.59;5031038;28;106093;-77
2022/01/16 17:54:08;;;;;;;23.30;11.68;;;;;;;1.78;67.02;100493.66;5031455;28;105955;-75
2022/01/16 17:56:34;;;;;;;16.33;9.40;;;;;;;1.78;66.91;100492.81;5031929;28;105885;-75
2022/01/16 17:59:01;;;;;;;20.63;11.80;;;;;;;1.72;67.33;100478.31;5032023;28;106237;-74
2022/01/16 18:01:26;;;;;;;24.05;12.27;;;;;;;1.65;67.51;100475.28;5031622;27;106182;-70
2022/01/16 18:03:52;;;;;;;22.17;11.68;;;;;;;1.60;67.72;100469.50;5012607;28;107092;-75
2022/01/16 18:06:17;;;;;;;21.08;12.15;;;;;;;1.59;67.86;100483.56;5031315;28;105788;-72
2022/01/16 18:08:42;;;;;;;20.92;10.13;;;;;;;1.58;68.22;100484.50;5031157;28;106166;-76
2022/01/16 18:11:08;;;;;;;21.33;10.93;;;;;;;1.58;68.25;100484.50;5031156;28;105818;-73
2022/01/16 18:13:33;;;;;;;19.80;10.30;;;;;;;1.60;68.25;100484.41;5029845;28;105976;-73
2022/01/16 18:15:59;;;;;;;16.42;10.73;;;;;;;1.59;68.56;100488.81;5030322;28;106247;-76
2022/01/16 18:18:29;;;;;;;17.95;10.23;;;;;;;1.61;68.49;100492.16;5031919;28;107426;-72
2022/01/16 18:20:58;;;;;;;18.03;10.33;;;;;;;1.63;68.45;100492.91;5030977;28;107245;-72
2022/01/16 18:23:24;;;;;;;20.50;10.63;;;;;;;1.66;68.63;100495.34;5031710;28;106102;-71
2022/01/16 18:25:50;;;;;;;20.85;11.48;;;;;;;1.70;68.79;100485.47;5032245;28;106163;-75
2022/01/16 18:28:15;;;;;;;17.95;8.90;;;;;;;1.73;68.79;100482.63;5030827;28;105830;-72
2022/01/16 18:30:42;;;;;;;17.48;10.25;;;;;;;1.71;68.85;100486.28;5030898;28;107124;-72
2022/01/16 18:33:08;;;;;;;16.50;10.38;;;;;;;1.71;68.73;100471.41;5030193;28;105897;-72
2022/01/16 18:35:34;;;;;;;22.73;10.52;;;;;;;1.74;69.48;100478.22;5032135;28;105881;-76
2022/01/16 18:38:00;;;;;;;16.88;9.80;;;;;;;1.71;69.05;100475.78;5030694;28;106081;-73
2022/01/16 18:40:25;;;;;;;18.70;11.10;;;;;;;1.72;69.30;100490.59;5031213;28;105768;-75
2022/01/16 18:42:51;;;;;;;18.88;10.35;;;;;;;1.73;69.39;100482.63;5030537;28;105946;-74
2022/01/16 18:45:19;;;;;;;17.60;9.25;;;;;;;1.75;69.33;100487.75;5030272;28;106045;-71
2022/01/16 18:47:47;;;;;;;17.48;10.00;;;;;;;1.77;69.17;100472.75;5031839;28;105944;-73
2022/01/16 18:50:16;;;;;;;16.67;8.65;;;;;;;1.77;69.24;100476.22;5029534;28;105950;-74
2022/01/16 18:52:43;;;;;;;9.45;5.97;;;;;;;1.80;69.63;100464.66;5031341;28;106083;-73
2022/01/16 18:55:10;;;;;;;14.27;8.20;;;;;;;1.81;69.67;100466.34;5031813;28;106243;-72
2022/01/16 18:57:36;;;;;;;17.45;8.35;;;;;;;1.79;69.73;100474.31;5033226;28;106282;-73
2022/01/16 19:00:05;;;;;;;13.20;8.05;;;;;;;1.78;69.65;100467.38;5033968;28;107734;-76
2022/01/16 19:02:30;;;;;;;21.42;11.15;;;;;;;1.79;69.74;100473.47;5032132;27;106289;-71
2022/01/16 19:04:55;;;;;;;19.23;9.93;;;;;;;1.82;69.93;100468.03;5032943;28;106059;-72
2022/01/16 19:07:21;;;;;;;11.38;7.03;;;;;;;1.84;69.90;100474.00;5031544;28;106207;-73
2022/01/16 19:09:46;;;;;;;15.40;9.60;;;;;;;1.85;69.96;100467.81;5029818;28;105917;-72
2022/01/16 19:12:12;;;;;;;13.23;9.10;;;;;;;1.85;69.69;100462.53;5030106;28;105865;-72
2022/01/16 19:14:38;;;;;;;18.63;9.45;;;;;;;1.88;70.01;100472.84;5029981;27;105977;-73
2022/01/16 19:17:04;;;;;;;15.80;8.90;;;;;;;1.88;69.91;100461.50;5030449;28;105917;-73
2022/01/16 19:19:29;;;;;;;14.88;8.13;;;;;;;1.88;69.81;100472.00;5029852;28;106092;-71
2022/01/16 19:21:54;;;;;;;13.77;8.40;;;;;;;1.89;70.08;100479.78;5030114;28;106024;-71
2022/01/16 19:24:22;;;;;;;13.65;8.43;;;;;;;1.91;70.17;100475.25;5030754;28;106182;-72
2022/01/16 19:26:47;;;;;;;13.50;7.15;;;;;;;1.91;70.30;100472.63;5029717;28;106258;-73
2022/01/16 19:29:12;;;;;;;14.30;9.15;;;;;;;1.92;70.31;100479.56;5028756;28;106060;-72
2022/01/16 19:31:38;;;;;;;12.35;6.80;;;;;;;1.94;70.48;100472.41;5028745;28;105896;-53
2022/01/16 19:34:03;;;;;;;14.35;8.60;;;;;;;1.97;70.33;100472.19;5029648;28;105807;-79
2022/01/16 19:36:29;;;;;;;13.65;7.97;;;;;;;1.98;70.14;100462.50;5028492;28;106345;-75
2022/01/16 19:38:55;;;;;;;10.88;6.28;;;;;;;1.97;70.29;100472.19;5028469;28;105966;-80
2022/01/16 19:41:20;;;;;;;11.57;7.20;;;;;;;1.95;69.96;100468.81;5028983;28;105878;-79
2022/01/16 19:43:46;;;;;;;5.68;3.65;;;;;;;1.96;70.66;100481.03;5029413;28;106036;-74
2022/01/16 19:46:11;;;;;;;10.98;6.47;;;;;;;1.94;70.51;100493.44;5025948;28;106272;-73
2022/01/16 19:48:37;;;;;;;13.63;8.00;;;;;;;1.96;70.85;100481.03;5027046;28;106329;-74
2022/01/16 19:51:04;;;;;;;15.50;7.75;;;;;;;1.94;70.57;100477.69;5026963;27;106373;-75
2022/01/16 19:53:29;;;;;;;11.63;5.25;;;;;;;1.96;70.88;100494.16;5027985;28;106456;-75
2022/01/16 19:55:56;;;;;;;11.27;6.13;;;;;;;1.97;70.69;100493.22;5027494;28;106166;-75
2022/01/16 19:58:22;;;;;;;12.93;7.15;;;;;;;1.99;70.80;100501.81;5026831;28;106164;-74
2022/01/16 20:00:50;;;;;;;12.23;6.60;;;;;;;2.01;70.70;100494.69;5026702;28;106171;-75
2022/01/16 20:03:19;;;;;;;11.52;5.28;;;;;;;1.98;71.00;100494.91;5026927;28;106124;-74
2022/01/16 20:05:47;;;;;;;12.55;7.60;;;;;;;1.98;71.02;100496.66;5027095;28;106164;-75
2022/01/16 20:08:13;;;;;;;12.20;6.82;;;;;;;1.95;70.89;100487.22;5026659;28;106150;-76
2022/01/16 20:10:40;;;;;;;12.30;6.82;;;;;;;1.98;71.19;100488.78;5026473;28;106058;-75
2022/01/16 20:13:05;;;;;;;12.52;7.00;;;;;;;1.98;71.11;100473.88;5027972;28;105896;-78
2022/01/16 20:15:31;;;;;;;11.15;6.10;;;;;;;2.02;71.35;100477.13;5025342;28;106382;-77
2022/01/16 20:17:59;;;;;;;13.05;7.68;;;;;;;2.02;70.98;100475.34;5027001;28;105957;-75
2022/01/16 20:20:26;;;;;;;10.32;6.18;;;;;;;2.02;71.13;100467.47;5026256;28;106484;-75
2022/01/16 20:22:53;;;;;;;10.27;6.38;;;;;;;2.02;71.12;100464.84;5026986;28;106058;-75
2022/01/16 20:25:19;;;;;;;13.77;7.57;;;;;;;2.07;71.31;100474.19;5008218;28;106800;-74
2022/01/16 20:27:45;;;;;;;10.85;6.88;;;;;;;2.09;71.48;100465.25;5026086;28;106073;-74
2022/01/16 20:30:11;;;;;;;10.80;7.22;;;;;;;2.12;71.24;100469.41;5025717;28;107324;-77
2022/01/16 20:32:36;;;;;;;10.95;6.00;;;;;;;2.17;71.58;100451.53;5026602;28;106545;-75
2022/01/16 20:35:02;;;;;;;12.02;6.38;;;;;;;2.18;71.49;100469.00;5025760;28;105907;-77
2022/01/16 20:37:30;;;;;;;10.73;6.32;;;;;;;2.20;71.70;100461.81;5025666;28;106126;-75
2022/01/16 20:39:55;;;;;;;9.02;5.65;;;;;;;2.23;71.70;100471.28;5025172;28;106208;-75
2022/01/16 20:42:21;;;;;;;11.38;6.20;;;;;;;2.25;71.54;100464.16;5027067;28;105995;-72
2022/01/16 20:44:46;;;;;;;9.50;5.57;;;;;;;2.25;71.83;100475.50;5024950;28;106243;-73
2022/01/16 20:47:12;;;;;;;9.18;5.07;;;;;;;2.26;71.61;100466.66;5025534;28;106214;-73
2022/01/16 20:49:37;;;;;;;5.55;3.92;;;;;;;2.27;71.97;100473.59;5026081;28;105934;-71
2022/01/16 20:52:03;;;;;;;9.98;6.05;;;;;;;2.26;71.74;100473.72;5024982;28;106573;-72
2022/01/16 20:54:28;;;;;;;6.28;3.83;;;;;;;2.26;72.05;100477.19;5024543;28;106612;-75
2022/01/16 20:56:53;;;;;;;8.82;3.92;;;;;;;2.26;72.07;100481.59;5027031;28;106202;-73
2022/01/16 20:59:19;;;;;;;9.23;5.55;;;;;;;2.28;71.97;100477.88;5027143;28;106373;-73
2022/01/16 21:01:45;;;;;;;9.70;5.70;;;;;;;2.29;72.34;100487.47;5028679;27;106102;-73
2022/01/16 21:04:11;;;;;;;10.65;6.55;;;;;;;2.30;72.29;100483.91;5030671;28;106204;-74
2022/01/16 21:06:37;;;;;;;8.52;4.38;;;;;;;2.36;72.36;100494.00;5011792;28;106731;-75
2022/01/16 21:09:04;;;;;;;9.90;6.18;;;;;;;2.37;72.38;100485.13;5030608;28;105882;-75
2022/01/16 21:11:30;;;;;;;7.75;4.25;;;;;;;2.41;72.26;100490.19;5031114;28;106069;-74
2022/01/16 21:13:58;;;;;;;8.20;5.10;;;;;;;2.43;72.56;100491.72;5030411;28;106402;-75
2022/01/16 21:16:24;;;;;;;8.82;4.97;;;;;;;2.44;72.20;100489.97;5030054;28;106263;-75
2022/01/16 21:18:49;;;;;;;9.88;6.40;;;;;;;2.45;72.04;100481.13;5030387;28;109492;-74
2022/01/16 21:21:16;;;;;;;10.85;6.25;;;;;;;2.47;72.16;100492.34;5031359;28;105913;-74
